This is the latest recevied weather packets stored in our database for station/object PY2FGD-15. If no packets are shown the sender has not sent any weather packets the latest 10 day(s).
| Time | Temp. | Humidity | Pressure | Rain* | Wind** | Luminosity | Snow |
|---|---|---|---|---|---|---|---|
| 1778110803 | 21.11° C | 73% | 1018 hPa | 2.54 mm | - | - | - |
| 1778106603 | 23.33° C | 73% | 1017 hPa | 2.54 mm | - | - | - |
| 1778096403 | 26.67° C | 50% | 1016 hPa | 2.54 mm | - | - | - |
| 1778095203 | 27.22° C | 50% | 1016 hPa | 2.54 mm | - | - | - |
| 1778092805 | 27.78° C | 50% | 1016 hPa | 2.54 mm | - | - | - |
| 1778091604 | 28.33° C | 50% | 1017 hPa | 2.54 mm | - | - | - |
| 1778086803 | 27.78° C | 48% | 1018 hPa | 2.54 mm | - | - | - |
| 1778085606 | 26.11° C | 52% | 1018 hPa | 2.54 mm | - | - | - |
| 1778081404 | 28.33° C | 52% | 1019 hPa | 2.54 mm | - | - | - |
| 1778073603 | 22.78° C | 75% | 1021 hPa | 2.54 mm | - | - | - |
| 1778070603 | 21.67° C | 78% | 1021 hPa | 2.54 mm | - | - | - |
| 1778070003 | 21.11° C | 80% | 1021 hPa | 2.54 mm | - | - | - |
| 1778069403 | 21.11° C | 80% | 1021 hPa | 2.54 mm | - | - | - |
| 1778066405 | 20° C | 83% | 1020 hPa | 2.54 mm | - | - | - |
| 1778056804 | 14.44° C | 84% | 1019 hPa | 2.54 mm | - | - | - |
| 1778056204 | 15° C | 84% | 1019 hPa | 2.54 mm | - | - | - |
| 1778053805 | 16.67° C | 84% | 1019 hPa | 2.54 mm | - | - | - |
| 1778053203 | 16.67° C | 84% | 1019 hPa | 2.54 mm | - | - | - |
| 1778052603 | 17.22° C | 84% | 1019 hPa | 2.54 mm | - | - | - |
| 1778047203 | 20° C | 84% | 1020 hPa | 2.54 mm | - | - | - |
| 1778046604 | 20° C | 84% | 1020 hPa | 2.54 mm | - | - | - |
| 1778046003 | 20.56° C | 84% | 1020 hPa | 2.54 mm | - | - | - |
| 1778043605 | 21.67° C | 82% | 1020 hPa | 2.54 mm | - | - | - |
| 1778037603 | 17.78° C | 83% | 1020 hPa | 2.54 mm | - | - | - |
| 1778035804 | 18.33° C | 83% | 1020 hPa | 2.54 mm | - | - | - |
* Rain latest hour (hover to see other rain measurements)
** Current wind speed in m/s (hover to see current wind gust speed)